Weather at Gorice Airfield

Public forecast

Using degrees Celsius for public forecast. Weather courtesy of forecast.io.

Closest aviation weather report (METAR) to Gorice Airfield

Closest report is Tuzla International Airport, 27.2 nm (50.4 km) S.

2024/05/20 06:30 (retrieved 17 minutes ago)

LQTZ 200630Z VRB01KT 9999 FEW004 17/17 Q1012

Closest aviation forecast (TAF) to Gorice Airfield

Closest forecast is Tuzla International Airport, 27.2 nm (50.4 km) S.

2024/05/20 06:06 (retrieved 41 minutes ago)

TAF LQTZ 200500Z 2006/2106 10005KT 9999 SCT045 TX25/2014Z TN13/2104Z PROB30 TEMPO 2010/2013 09012KT SHRA FEW040TCU SCT045 PROB40 TEMPO 2013/2017 VRB15KT 4000 TSRA FEW035CB BKN045 PROB40 TEMPO 2100/2106 2000 BR PROB30 TEMPO 2102/2106 0200 FG BKN001